Meteo Giornale » Osservazioni meteo Australia » Hobart
ore: 06:00 - Osservazioni Meteo Hobart
Lat. 42° 50' S Lon. 147° 29' E Alt. 4 metri s.l.m.
10 °C
Sereno
Temp. 24 Ore
7 °C
20 °C
Nord-Ovest
22.2 Km/h
Dew point 5 °C
Umidità 71 %
Visibilità 10 Km
Il sole sorge alle ore 06:36
Il sole tramonta alle ore 17:43
| Data e Ora | Cielo e Fenomeni | T °C | DP °C | Um. % | Pres. hPa | Vis. km | Vento km/h | |
|---|---|---|---|---|---|---|---|---|
| Oggi h: 06:00 | Sereno | 10 | 5 | 71 | 1013 | 10 | NO 22.2 | |
| Oggi h: 05:30 | Sereno | 10 | 5 | 71 | 1014 | 10 | NO 22.2 | |
| Oggi h: 05:00 | Sereno | 8 | 5 | 81 | 1014 | 10 | N/NO 9.3 | |
| Oggi h: 04:30 | Sereno | 7 | 5 | 87 | 1015 | 10 | NO 13 | |
| Oggi h: 04:00 | Sereno | 7 | 5 | 87 | 1015 | 10 | N 3.7 | |
| Oggi h: 03:30 | Sereno | 8 | 5 | 81 | 1016 | 10 | O 13 | |
| Oggi h: 03:00 | Sereno | 8 | 5 | 81 | 1016 | 10 | O/NO 13 | |
| Oggi h: 02:30 | Sereno | 9 | 5 | 75 | 1017 | 10 | NO 16.7 | |
| Oggi h: 02:00 | Sereno | 8 | 4 | 75 | 1018 | 10 | NO 16.7 | |
| Oggi h: 01:30 | Sereno | 10 | 5 | 71 | 1018 | 10 | N/NO 16.7 | |
| Oggi h: 01:00 | Sereno | 10 | 5 | 71 | 1018 | 10 | NO 18.5 | |
| Oggi h: 00:30 | Sereno | 11 | 5 | 66 | 1018 | 10 | N/NO 16.7 | |
| Oggi h: 00:00 | Sereno | 11 | 5 | 66 | 1019 | 10 | N 16.7 | |
| Ieri h: 23:30 | Sereno | 12 | 5 | 62 | 1019 | 10 | N/NO 16.7 | |
| Ieri h: 23:00 | Sereno | 9 | 5 | 75 | 1020 | 10 | O/NO 11.1 | |
| Ieri h: 22:30 | Sereno | 11 | 5 | 66 | 1020 | 10 | N/NO 11.1 | |
| Ieri h: 22:00 | Sereno | 7 | 4 | 81 | 1021 | 10 | N/NO 13 | |
| Ieri h: 21:30 | Sereno | 8 | 5 | 81 | 1021 | 10 | N 1.8 | |
| Ieri h: 21:00 | Sereno | 9 | 6 | 81 | 1021 | 10 | O/NO 9.3 | |
| Ieri h: 20:30 | Sereno | 8 | 5 | 81 | 1021 | 10 | N/NO 9.3 | |
| Ieri h: 20:00 | Sereno | 10 | 6 | 76 | 1021 | 10 | S/SO 7.4 | |
| Ieri h: 19:30 | Sereno | 10 | 6 | 76 | 1021 | 10 | O/NO 11.1 | |
| Ieri h: 19:00 | Sereno | 13 | 5 | 58 | 1021 | 10 | N/NO 9.3 | |
| Ieri h: 18:30 | Sereno | 12 | 4 | 57 | 1021 | 10 | N 5.5 | |
| Ieri h: 18:00 | Sereno | 14 | 4 | 50 | 1021 | 10 | N 5.5 | |
| Ieri h: 17:30 | Sereno | 16 | 4 | 44 | 1021 | 10 | O 18.5 | |
| Ieri h: 17:00 | Sereno | 18 | 4 | 39 | 1021 | 10 | O/NO 18.5 | |
| Ieri h: 16:30 | Sereno | 18 | 3 | 36 | 1021 | 10 | O/NO 18.5 | |
| Ieri h: 16:00 | Sereno | 19 | 3 | 34 | 1021 | 10 | O/NO 24 | |
| Ieri h: 15:30 | Sereno | 18 | 5 | 42 | 1022 | 10 | O/NO 24 | |
| Ieri h: 15:00 | Sereno | 19 | 4 | 37 | 1022 | 10 | O/NO 25.9 | |
| Ieri h: 14:30 | Sereno | 20 | 6 | 39 | 1022 | 10 | O/NO 25.9 | |
| Ieri h: 14:00 | Sereno | 19 | 5 | 39 | 1022 | 10 | O/NO 29.6 | |
| Ieri h: 13:30 | Sereno | 19 | 5 | 39 | 1022 | 10 | O/NO 25.9 | |
| Ieri h: 13:00 | Sereno | 19 | 3 | 34 | 1023 | 10 | O/NO 25.9 | |
| Ieri h: 12:30 | Sereno | 18 | 5 | 42 | 1024 | 10 | NO 24 | |
| Ieri h: 12:00 | Sereno | 18 | 5 | 42 | 1024 | 10 | NO 20.3 | |
| Ieri h: 11:30 | Sereno | 17 | 4 | 41 | 1025 | 10 | O/NO 22.2 | |
| Ieri h: 11:00 | Sereno | 16 | 4 | 44 | 1025 | 10 | NO 20.3 | |
| Ieri h: 10:30 | Sereno | 15 | 6 | 54 | 1025 | 10 | N/NO 18.5 | |
| Ieri h: 10:00 | Sereno | 14 | 5 | 54 | 1025 | 10 | NO 9.3 | |
| Ieri h: 09:30 | Sereno | 14 | 5 | 54 | 1026 | 10 | NO 7.4 | |
| Ieri h: 09:00 | Sereno | 13 | 5 | 58 | 1026 | 10 | O 9.3 | |
| Ieri h: 08:30 | Sereno | 11 | 5 | 66 | 1026 | 10 | N/NO 16.7 | |
| Ieri h: 08:00 | Sereno | 11 | 5 | 66 | 1026 | 10 | N/NO 18.5 | |
| Ieri h: 07:30 | Sereno | 10 | 4 | 66 | 1026 | 10 | NO 25.9 | |
| Ieri h: 07:00 | Sereno | 10 | 4 | 66 | 1025 | 10 | NO 29.6 | |



